Time;durP1;ratioP1;P1;durP2;ratioP2;P2;SDS_P1;SDS_P2;PMS_P1;PMS_P2;Temp;Humidity;BMP_temperature;BMP_pressure;BME280_temperature;BME280_humidity;BME280_pressure;Samples;Min_cycle;Max_cycle;Signal;HPM_P1;HPM_P2
2022/07/05 00:01:44;;;;;;;12.30;9.75;;;;;;;22.57;50.79;99344.09;5069003;27;20055;-72
2022/07/05 00:04:08;;;;;;;12.60;9.95;;;;;;;22.51;51.26;99340.25;5087001;27;20030;-70
2022/07/05 00:06:33;;;;;;;13.27;10.82;;;;;;;22.45;52.14;99343.75;5088357;27;20038;-72
2022/07/05 00:08:58;;;;;;;12.60;9.70;;;;;;;22.41;50.86;99337.00;5087404;27;20042;-72
2022/07/05 00:11:23;;;;;;;12.55;9.75;;;;;;;22.39;51.07;99341.78;5089954;27;20433;-72
2022/07/05 00:13:48;;;;;;;11.82;9.75;;;;;;;22.39;49.80;99334.47;5088964;27;20634;-69
2022/07/05 00:16:13;;;;;;;13.75;9.68;;;;;;;22.43;48.93;99341.22;5104739;27;20065;-70
2022/07/05 00:18:38;;;;;;;11.43;8.70;;;;;;;22.43;49.67;99341.22;5107220;27;20045;-70
2022/07/05 00:21:02;;;;;;;14.43;9.48;;;;;;;22.43;50.19;99345.81;5101844;27;20039;-71
2022/07/05 00:23:27;;;;;;;11.27;8.88;;;;;;;22.41;49.73;99343.28;5103884;27;20034;-69
2022/07/05 00:25:52;;;;;;;12.30;9.48;;;;;;;22.36;50.98;99343.00;5084994;27;20113;-71
2022/07/05 00:28:17;;;;;;;13.50;9.02;;;;;;;22.33;50.37;99345.28;5088586;27;20046;-69
2022/07/05 00:30:42;;;;;;;12.43;9.35;;;;;;;22.33;49.57;99342.56;5068305;27;20024;-70
2022/07/05 00:33:07;;;;;;;12.77;8.90;;;;;;;22.32;50.03;99347.16;5086992;27;20050;-69
2022/07/05 00:35:31;;;;;;;12.82;9.27;;;;;;;22.28;50.00;99342.28;5086361;27;20034;-72
2022/07/05 00:37:56;;;;;;;12.95;9.13;;;;;;;22.25;49.97;99342.66;5103500;27;20042;-69
2022/07/05 00:40:21;;;;;;;15.18;9.23;;;;;;;22.23;50.63;99348.31;5069989;27;20039;-72
2022/07/05 00:42:46;;;;;;;13.05;10.13;;;;;;;22.22;52.47;99349.34;5104128;27;20382;-71
2022/07/05 00:45:11;;;;;;;15.75;9.05;;;;;;;22.20;52.03;99342.41;5103690;27;20129;-70
2022/07/05 00:47:36;;;;;;;11.40;9.75;;;;;;;22.17;50.92;99345.50;5074070;27;20049;-72
2022/07/05 00:50:01;;;;;;;12.07;9.10;;;;;;;22.18;49.61;99344.47;5085847;27;20035;-72
2022/07/05 00:52:28;;;;;;;13.25;8.60;;;;;;;22.17;49.62;99349.06;5078364;27;20034;-69
2022/07/05 00:54:53;;;;;;;14.40;9.27;;;;;;;22.17;52.72;99350.94;5084465;27;20366;-70
2022/07/05 00:57:22;;;;;;;11.05;8.95;;;;;;;22.18;52.42;99353.47;5071479;27;20053;-73
2022/07/05 00:59:47;;;;;;;12.57;9.07;;;;;;;22.11;53.29;99347.13;5084194;28;20035;-76
2022/07/05 01:02:12;;;;;;;11.80;9.85;;;;;;;22.06;51.40;99354.97;5072473;27;20063;-76
2022/07/05 01:04:38;;;;;;;15.23;10.57;;;;;;;22.05;51.00;99354.16;5088597;27;20031;-74
2022/07/05 01:07:03;;;;;;;11.07;9.20;;;;;;;22.04;52.05;99357.88;5078499;27;20045;-77
2022/07/05 01:09:28;;;;;;;14.27;9.68;;;;;;;22.05;50.01;99354.16;5118155;27;20045;-77
2022/07/05 01:11:54;;;;;;;17.45;9.70;;;;;;;22.09;51.23;99354.63;5083278;27;20046;-77
2022/07/05 01:14:20;;;;;;;10.85;8.95;;;;;;;22.09;51.14;99357.31;5102138;27;20046;-77
2022/07/05 01:16:45;;;;;;;11.00;8.60;;;;;;;22.08;52.59;99369.22;5103258;27;20046;-77
2022/07/05 01:19:11;;;;;;;11.45;8.70;;;;;;;22.06;53.05;99365.84;5102651;27;20035;-72
2022/07/05 01:21:39;;;;;;;11.38;9.23;;;;;;;22.03;52.66;99361.63;5082717;27;20051;-74
2022/07/05 01:24:05;;;;;;;12.48;9.43;;;;;;;21.95;53.46;99363.59;5100625;27;20031;-73
2022/07/05 01:26:30;;;;;;;10.65;9.20;;;;;;;21.88;53.75;99362.66;5120068;27;20042;-77
2022/07/05 01:28:55;;;;;;;12.90;9.57;;;;;;;21.81;54.22;99359.00;5123191;27;20039;-77
2022/07/05 01:31:20;;;;;;;18.38;9.05;;;;;;;21.76;54.86;99359.59;5125676;27;20538;-79
2022/07/05 01:33:45;;;;;;;12.75;8.55;;;;;;;21.72;55.27;99352.84;5108349;27;20023;-71
2022/07/05 01:36:12;;;;;;;12.60;7.93;;;;;;;21.71;55.02;99364.72;5124652;27;20039;-71
2022/07/05 01:38:37;;;;;;;12.68;9.60;;;;;;;21.69;55.18;99358.63;5088130;27;20031;-77
2022/07/05 01:41:02;;;;;;;13.57;9.05;;;;;;;21.68;55.41;99351.53;5120982;27;20043;-70
2022/07/05 01:43:27;;;;;;;12.05;8.88;;;;;;;21.68;55.10;99351.53;5116717;27;20053;-71
2022/07/05 01:45:54;;;;;;;16.92;9.98;;;;;;;21.70;55.09;99347.59;5082218;27;20035;-70
2022/07/05 01:48:21;;;;;;;14.45;9.73;;;;;;;21.72;55.50;99350.97;5099667;27;20102;-76
2022/07/05 01:50:53;;;;;;;14.25;9.90;;;;;;;21.79;55.25;99351.03;5098518;27;20070;-70
2022/07/05 01:53:21;;;;;;;10.70;8.65;;;;;;;21.80;55.48;99352.72;5098214;27;20039;-72
2022/07/05 01:55:46;;;;;;;10.50;8.30;;;;;;;21.82;55.23;99347.13;5099128;27;20051;-71
2022/07/05 01:58:11;;;;;;;14.00;8.85;;;;;;;21.85;55.31;99344.03;5101856;27;20045;-72
2022/07/05 02:00:48;;;;;;;10.77;8.95;;;;;;;21.92;53.53;99336.81;5103063;27;20042;-72
2022/07/05 02:03:14;;;;;;;10.95;8.82;;;;;;;21.89;53.73;99339.94;5111501;27;20038;-72
2022/07/05 02:05:40;;;;;;;11.02;9.00;;;;;;;21.93;54.40;99343.94;5108310;27;20497;-72
2022/07/05 02:08:05;;;;;;;12.13;8.75;;;;;;;21.97;55.20;99347.94;5104537;27;20038;-69
2022/07/05 02:10:30;;;;;;;11.02;9.02;;;;;;;22.02;53.98;99353.66;5119051;27;20465;-71
2022/07/05 02:12:55;;;;;;;13.13;10.48;;;;;;;22.08;54.50;99344.78;5100669;27;20105;-71
2022/07/05 02:15:20;;;;;;;13.77;10.40;;;;;;;22.19;54.13;99348.88;5100942;27;20082;-70
2022/07/05 02:17:45;;;;;;;14.82;10.75;;;;;;;22.28;52.73;99353.16;5119295;27;20077;-71
2022/07/05 02:20:11;;;;;;;13.13;9.27;;;;;;;22.38;52.40;99345.53;5083508;27;20113;-69
2022/07/05 02:22:36;;;;;;;11.95;8.65;;;;;;;22.49;51.22;99349.63;5100416;27;20559;-71
2022/07/05 02:25:01;;;;;;;12.57;9.02;;;;;;;22.59;51.82;99356.41;5082811;27;20543;-70
2022/07/05 02:27:27;;;;;;;12.63;9.57;;;;;;;22.68;52.73;99347.13;5120821;27;20043;-70
2022/07/05 02:29:52;;;;;;;11.98;9.75;;;;;;;22.76;52.85;99352.44;5118958;27;20042;-70
2022/07/05 02:32:24;;;;;;;12.68;9.05;;;;;;;22.86;52.12;99354.00;5085001;27;20172;-70
2022/07/05 02:34:49;;;;;;;11.43;8.05;;;;;;;23.01;48.11;99354.75;5101424;27;20125;-69
2022/07/05 02:37:14;;;;;;;11.68;8.20;;;;;;;23.10;47.96;99356.28;5101922;27;20533;-69
2022/07/05 02:39:39;;;;;;;9.85;7.72;;;;;;;23.18;47.36;99350.69;5085637;27;20042;-70
2022/07/05 02:42:05;;;;;;;10.98;8.57;;;;;;;23.28;47.31;99353.06;5101920;27;20501;-70
2022/07/05 02:44:30;;;;;;;10.90;8.10;;;;;;;23.36;47.35;99359.22;5119189;27;20039;-70
2022/07/05 02:46:56;;;;;;;9.55;8.57;;;;;;;23.45;47.40;99352.59;5083414;27;20045;-69
2022/07/05 02:49:22;;;;;;;11.05;8.07;;;;;;;23.53;47.05;99355.16;5100452;27;20046;-68
2022/07/05 02:51:47;;;;;;;13.43;8.48;;;;;;;23.61;46.72;99358.75;5100018;27;20046;-69
2022/07/05 02:54:12;;;;;;;10.95;7.70;;;;;;;23.68;46.24;99363.22;5087406;27;20069;-70
2022/07/05 02:56:38;;;;;;;10.05;8.70;;;;;;;23.73;46.42;99360.72;5116978;27;20042;-68
2022/07/05 02:59:05;;;;;;;10.30;7.63;;;;;;;23.80;45.78;99366.22;5112323;27;20062;-70
2022/07/05 03:01:33;;;;;;;10.93;8.40;;;;;;;23.87;45.72;99369.81;5092148;27;20133;-71
2022/07/05 03:04:01;;;;;;;9.55;7.80;;;;;;;23.94;45.94;99373.41;5077345;27;20125;-67
2022/07/05 03:06:28;;;;;;;13.05;7.75;;;;;;;24.02;45.26;99369.69;5086482;27;20042;-71
2022/07/05 03:08:54;;;;;;;13.00;8.40;;;;;;;24.04;45.59;99371.13;5101056;27;20046;-68
2022/07/05 03:11:20;;;;;;;13.63;7.78;;;;;;;24.07;45.27;99373.47;5089098;27;20053;-71
2022/07/05 03:13:47;;;;;;;10.45;8.77;;;;;;;24.05;45.26;99367.38;5124727;27;20035;-74
2022/07/05 03:16:12;;;;;;;13.00;8.55;;;;;;;24.10;45.14;99373.06;5076237;28;20052;-77
2022/07/05 03:18:38;;;;;;;12.05;8.45;;;;;;;24.04;45.24;99367.59;5085003;27;20042;-76
2022/07/05 03:21:05;;;;;;;16.25;9.32;;;;;;;24.07;45.28;99373.47;5087061;27;20481;-74
2022/07/05 03:23:32;;;;;;;14.75;8.20;;;;;;;24.13;45.22;99378.13;5053620;27;20545;-76
2022/07/05 03:25:57;;;;;;;10.00;7.78;;;;;;;24.24;44.80;99372.13;5070205;27;20102;-75
2022/07/05 03:28:22;;;;;;;12.30;8.48;;;;;;;24.30;44.49;99372.31;5086437;27;20034;-74
2022/07/05 03:30:49;;;;;;;9.23;8.00;;;;;;;24.41;44.26;99369.84;5068711;27;20039;-74
2022/07/05 03:33:14;;;;;;;13.95;8.20;;;;;;;24.46;44.45;99382.88;5059601;27;20047;-73
2022/07/05 03:35:42;;;;;;;10.80;7.90;;;;;;;24.46;44.56;99380.97;5057985;27;20405;-74
2022/07/05 03:38:07;;;;;;;9.43;8.02;;;;;;;24.52;44.68;99379.31;5086610;27;20047;-74
2022/07/05 03:40:32;;;;;;;11.85;8.90;;;;;;;24.61;44.38;99380.78;5068338;28;20042;-76
2022/07/05 03:42:58;;;;;;;10.13;9.05;;;;;;;24.67;43.98;99385.44;5069170;28;20443;-72
2022/07/05 03:45:25;;;;;;;10.80;8.70;;;;;;;24.77;43.92;99379.56;5058286;28;20043;-75
2022/07/05 03:47:50;;;;;;;9.98;8.07;;;;;;;24.84;43.80;99396.78;5076764;28;20085;-75
2022/07/05 03:50:14;;;;;;;12.20;9.38;;;;;;;24.90;43.82;99385.91;5041311;28;20065;-73
2022/07/05 03:52:40;;;;;;;12.77;9.00;;;;;;;24.93;43.86;99390.97;5059333;28;20046;-76
2022/07/05 03:55:06;;;;;;;14.70;9.02;;;;;;;25.01;43.96;99397.25;5076954;28;20067;-75
2022/07/05 03:57:31;;;;;;;9.85;8.80;;;;;;;25.11;43.35;99400.41;5077131;28;20123;-75
2022/07/05 03:59:57;;;;;;;10.10;8.18;;;;;;;25.18;43.37;99399.34;5060236;28;20076;-75
2022/07/05 04:02:22;;;;;;;11.73;8.65;;;;;;;25.33;42.56;99405.47;5077866;28;20078;-74
2022/07/05 04:04:47;;;;;;;14.50;9.77;;;;;;;25.36;42.39;99403.38;5085312;28;20039;-77
2022/07/05 04:07:12;;;;;;;12.63;9.32;;;;;;;25.49;42.00;99406.94;5081978;28;20078;-73
2022/07/05 04:09:38;;;;;;;11.45;9.48;;;;;;;25.61;42.16;99404.44;5061772;28;20067;-77
2022/07/05 04:12:04;;;;;;;12.00;9.13;;;;;;;25.73;42.34;99404.63;5064344;28;20051;-76
2022/07/05 04:14:31;;;;;;;12.30;8.95;;;;;;;25.84;41.60;99404.81;5081181;28;20050;-74
2022/07/05 04:16:58;;;;;;;15.00;9.57;;;;;;;25.89;41.93;99402.25;5082052;28;20592;-76
2022/07/05 04:19:23;;;;;;;10.52;8.73;;;;;;;25.94;42.10;99407.09;5080147;28;20044;-74
2022/07/05 04:21:49;;;;;;;15.65;9.75;;;;;;;26.05;41.31;99406.44;5081004;28;20043;-75
2022/07/05 04:24:15;;;;;;;13.80;9.38;;;;;;;26.09;41.67;99407.66;5060753;28;20401;-74
2022/07/05 04:26:39;;;;;;;11.43;8.63;;;;;;;26.14;41.71;99410.59;5076820;28;20413;-75
2022/07/05 04:29:04;;;;;;;12.13;9.10;;;;;;;26.25;41.41;99407.19;5076668;28;20039;-75
2022/07/05 04:31:34;;;;;;;11.57;9.35;;;;;;;26.35;41.13;99407.59;5059540;28;20402;-77
2022/07/05 04:33:59;;;;;;;19.80;9.07;;;;;;;26.41;41.49;99400.44;5069881;28;20047;-77
2022/07/05 04:36:28;;;;;;;15.10;9.07;;;;;;;26.55;41.32;99401.19;5079498;28;20406;-76
2022/07/05 04:38:55;;;;;;;12.77;9.55;;;;;;;26.71;40.62;99400.69;5084948;28;20051;-76
2022/07/05 04:41:21;;;;;;;12.77;9.98;;;;;;;26.90;40.62;99398.88;5087914;28;20062;-77
2022/07/05 04:43:46;;;;;;;9.73;8.73;;;;;;;27.10;40.41;99403.16;5088631;28;20130;-76
2022/07/05 04:46:12;;;;;;;11.32;9.00;;;;;;;27.36;39.13;99399.38;5059433;28;20466;-74
2022/07/05 04:48:37;;;;;;;12.82;8.65;;;;;;;27.55;38.69;99407.63;5074942;28;20058;-73
2022/07/05 04:51:01;;;;;;;15.32;10.02;;;;;;;27.70;38.59;99400.78;5074507;28;20172;-75
2022/07/05 04:53:28;;;;;;;17.30;10.20;;;;;;;27.90;38.20;99399.72;5057640;28;20058;-74
2022/07/05 04:55:53;;;;;;;18.63;10.27;;;;;;;28.11;37.91;99400.09;5074343;28;20027;-74
2022/07/05 04:58:18;;;;;;;11.73;9.32;;;;;;;28.44;37.11;99399.72;5074309;28;20039;-75
2022/07/05 05:00:43;;;;;;;15.52;9.13;;;;;;;28.79;37.06;99399.06;5075317;28;20088;-75
2022/07/05 05:03:07;;;;;;;13.95;8.70;;;;;;;28.95;36.27;99398.41;5075625;28;20054;-75
2022/07/05 05:05:32;;;;;;;12.90;9.55;;;;;;;28.99;36.18;99399.63;5074344;28;20393;-72
2022/07/05 05:07:57;;;;;;;15.10;8.93;;;;;;;29.05;35.74;99403.31;5075438;28;20056;-75
2022/07/05 05:10:22;;;;;;;12.48;9.55;;;;;;;29.09;35.72;99399.88;5074573;28;20409;-73
2022/07/05 05:12:46;;;;;;;20.48;9.88;;;;;;;29.17;35.92;99406.94;5084591;28;20043;-74
2022/07/05 05:15:11;;;;;;;19.67;10.35;;;;;;;29.32;35.26;99403.75;5084806;28;20040;-74
2022/07/05 05:17:41;;;;;;;14.05;9.73;;;;;;;29.44;34.95;99410.13;5059886;28;20573;-74
2022/07/05 05:20:11;;;;;;;12.90;9.15;;;;;;;29.60;34.67;99406.66;5043789;28;20047;-73
2022/07/05 05:22:36;;;;;;;13.68;9.60;;;;;;;29.76;34.28;99405.94;5095552;27;20070;-73
2022/07/05 05:25:01;;;;;;;15.77;10.55;;;;;;;29.85;34.34;99414.66;5096078;27;20067;-76
2022/07/05 05:27:28;;;;;;;17.13;9.95;;;;;;;29.95;34.23;99421.25;5077709;28;20046;-74
2022/07/05 05:29:52;;;;;;;16.15;9.77;;;;;;;30.13;34.19;99409.28;5060117;28;20035;-72
2022/07/05 05:32:17;;;;;;;16.50;9.77;;;;;;;30.29;34.04;99404.94;5062929;27;20465;-74
2022/07/05 05:34:42;;;;;;;13.27;9.10;;;;;;;30.57;33.48;99409.66;5080998;27;20508;-73
2022/07/05 05:37:07;;;;;;;14.30;10.00;;;;;;;30.78;32.95;99411.72;5063595;27;20138;-73
2022/07/05 05:39:31;;;;;;;13.77;9.80;;;;;;;30.80;32.63;99414.25;5063685;27;20501;-75
2022/07/05 05:41:56;;;;;;;16.45;9.68;;;;;;;30.87;32.64;99407.50;5063595;27;20509;-75
2022/07/05 05:44:21;;;;;;;15.98;9.52;;;;;;;31.07;32.43;99406.19;5080841;27;20055;-74
2022/07/05 05:46:46;;;;;;;11.07;9.77;;;;;;;31.39;31.97;99410.06;5099161;27;20498;-73
2022/07/05 05:49:10;;;;;;;16.35;9.98;;;;;;;31.85;31.87;99414.41;5080772;27;20042;-75
2022/07/05 05:51:35;;;;;;;14.73;9.57;;;;;;;32.28;30.87;99401.81;5099259;27;20122;-74
2022/07/05 05:54:00;;;;;;;14.73;10.35;;;;;;;32.60;30.50;99408.25;5099180;27;20518;-74
2022/07/05 05:56:26;;;;;;;11.48;8.95;;;;;;;32.69;30.07;99395.66;5080873;27;20039;-75
2022/07/05 05:58:51;;;;;;;12.95;10.18;;;;;;;32.93;28.94;99382.41;5063837;27;20043;-74
2022/07/05 06:01:16;;;;;;;13.90;9.70;;;;;;;33.28;28.73;99403.19;5099096;27;20046;-76
2022/07/05 06:03:41;;;;;;;14.98;10.80;;;;;;;33.61;28.36;99400.13;5098628;27;20099;-73
2022/07/05 06:06:05;;;;;;;12.20;9.73;;;;;;;33.88;27.76;99405.59;5063350;27;20439;-73
2022/07/05 06:08:30;;;;;;;14.82;10.52;;;;;;;34.09;27.65;99385.22;5063384;27;20454;-74
2022/07/05 06:10:55;;;;;;;13.23;9.50;;;;;;;34.45;26.92;99399.25;5080431;27;20121;-74
2022/07/05 06:13:20;;;;;;;11.05;9.57;;;;;;;34.89;26.18;99406.03;5098773;27;20043;-72
2022/07/05 06:15:45;;;;;;;16.48;10.38;;;;;;;35.18;26.06;99402.78;5099285;27;20054;-72
2022/07/05 06:18:11;;;;;;;13.63;9.93;;;;;;;35.58;25.45;99397.25;5080765;27;20043;-72
2022/07/05 06:20:37;;;;;;;12.00;9.68;;;;;;;36.40;24.33;99402.63;5063329;27;20443;-72
2022/07/05 06:23:04;;;;;;;12.27;9.32;;;;;;;37.09;24.03;99403.34;5080463;27;20051;-78
2022/07/05 06:25:29;;;;;;;12.02;9.85;;;;;;;37.78;22.88;99413.38;5046895;27;20042;-75
2022/07/05 06:28:04;;;;;;;16.38;9.38;;;;;;;37.85;22.90;99401.06;5098711;27;20532;-73
2022/07/05 06:30:31;;;;;;;18.00;10.27;;;;;;;37.94;22.14;99404.84;5046733;27;20642;-74
2022/07/05 06:32:56;;;;;;;11.77;10.25;;;;;;;37.94;22.33;99399.28;5100941;27;20515;-73
2022/07/05 06:35:22;;;;;;;14.50;9.90;;;;;;;38.14;22.13;99410.25;5091290;27;20039;-75
2022/07/05 06:37:49;;;;;;;11.05;9.95;;;;;;;38.34;21.81;99410.00;5089893;27;20513;-76
2022/07/05 06:40:18;;;;;;;11.82;10.65;;;;;;;38.22;21.71;99405.97;5065452;27;20039;-75
2022/07/05 06:42:42;;;;;;;15.18;10.88;;;;;;;37.93;22.34;99400.41;5098710;27;20065;-73
2022/07/05 06:45:08;;;;;;;12.50;10.45;;;;;;;38.11;21.82;99397.75;5063299;27;20031;-75
2022/07/05 06:47:34;;;;;;;10.98;9.88;;;;;;;38.54;22.12;99392.22;5080716;27;20039;-73
2022/07/05 06:49:59;;;;;;;13.45;10.38;;;;;;;38.87;20.87;99395.94;5064382;27;20042;-74
2022/07/05 06:52:24;;;;;;;13.02;9.82;;;;;;;38.62;21.33;99394.31;5097779;27;20409;-73
2022/07/05 06:54:49;;;;;;;11.68;10.52;;;;;;;38.09;21.01;99390.81;5062665;27;20822;-74
2022/07/05 06:57:14;;;;;;;18.83;10.30;;;;;;;37.67;21.11;99391.53;5099097;27;20405;-76
2022/07/05 06:59:38;;;;;;;15.35;10.20;;;;;;;37.96;21.31;99385.91;5079449;27;20038;-74
2022/07/05 07:02:03;;;;;;;11.27;10.13;;;;;;;38.85;20.76;99389.81;5062678;27;20175;-75
2022/07/05 07:04:28;;;;;;;10.60;9.60;;;;;;;39.85;19.45;99388.47;5062290;27;20039;-74
2022/07/05 07:06:53;;;;;;;15.23;11.52;;;;;;;40.53;18.70;99377.31;5079494;27;20384;-73
2022/07/05 07:09:17;;;;;;;15.13;10.18;;;;;;;40.47;18.50;99381.38;5079077;27;20046;-75
2022/07/05 07:11:42;;;;;;;11.82;10.73;;;;;;;40.31;19.10;99382.84;5097866;27;20155;-75
2022/07/05 07:14:07;;;;;;;11.95;9.95;;;;;;;40.94;19.31;99377.25;5097985;27;20159;-75
2022/07/05 07:16:32;;;;;;;12.27;11.05;;;;;;;41.81;18.01;99383.47;5079091;27;20051;-74
2022/07/05 07:18:57;;;;;;;12.40;11.20;;;;;;;41.76;17.54;99376.06;5103316;27;20061;-76
2022/07/05 07:21:22;;;;;;;12.73;11.43;;;;;;;41.56;17.97;99376.56;5091241;27;20038;-73
2022/07/05 07:23:46;;;;;;;27.67;12.70;;;;;;;41.69;17.96;99382.09;5097493;27;20405;-73
2022/07/05 07:26:13;;;;;;;23.40;11.52;;;;;;;41.93;17.67;99378.91;5079179;27;20505;-72
2022/07/05 07:28:38;;;;;;;12.70;11.38;;;;;;;42.37;17.42;99382.75;5061976;27;20042;-73
2022/07/05 07:31:03;;;;;;;12.73;11.63;;;;;;;42.75;16.75;99381.00;5062206;27;20054;-74
2022/07/05 07:33:27;;;;;;;15.75;12.48;;;;;;;42.67;16.87;99381.81;5097338;27;20099;-73
2022/07/05 07:35:52;;;;;;;13.05;11.82;;;;;;;42.26;16.90;99381.38;5079232;27;20481;-73
2022/07/05 07:38:17;;;;;;;15.30;12.52;;;;;;;41.93;17.50;99378.91;5080440;27;20060;-74
2022/07/05 07:40:41;;;;;;;13.27;12.05;;;;;;;42.30;18.16;99379.56;5097832;27;20053;-75
2022/07/05 07:43:06;;;;;;;12.65;11.35;;;;;;;42.84;17.41;99383.84;5098236;27;20074;-75
2022/07/05 07:45:31;;;;;;;12.95;11.48;;;;;;;43.73;17.25;99385.94;5078518;27;20035;-75
2022/07/05 07:47:56;;;;;;;15.10;12.38;;;;;;;44.22;15.64;99394.03;5078218;27;20043;-74
2022/07/05 07:50:21;;;;;;;13.00;11.70;;;;;;;44.09;15.26;99391.13;5078193;27;20445;-72
2022/07/05 07:52:46;;;;;;;13.95;12.13;;;;;;;43.93;15.52;99387.16;5096619;27;20437;-71
2022/07/05 07:55:11;;;;;;;14.40;13.07;;;;;;;43.98;16.04;99387.03;5096180;27;20051;-73
2022/07/05 07:57:36;;;;;;;14.15;12.88;;;;;;;44.41;15.51;99386.84;5078448;27;20378;-72
2022/07/05 08:00:01;;;;;;;14.77;13.27;;;;;;;44.45;14.45;99384.19;5078175;27;20050;-78
2022/07/05 08:02:26;;;;;;;14.50;13.20;;;;;;;44.67;15.36;99383.84;5078380;27;20035;-78
2022/07/05 08:04:51;;;;;;;15.18;13.73;;;;;;;44.92;15.77;99384.03;5097035;27;20123;-80
2022/07/05 08:07:17;;;;;;;14.77;13.23;;;;;;;45.04;14.42;99389.72;5097153;27;20058;-78
2022/07/05 08:09:42;;;;;;;14.75;13.45;;;;;;;45.10;14.62;99386.34;5097127;27;20054;-80
2022/07/05 08:12:07;;;;;;;15.43;14.02;;;;;;;45.16;14.15;99390.59;5061752;27;20409;-77
2022/07/05 08:14:32;;;;;;;16.70;15.23;;;;;;;44.97;15.90;99384.63;5096660;27;20054;-79
2022/07/05 08:16:58;;;;;;;14.30;13.10;;;;;;;45.20;14.80;99382.31;5078166;27;20506;-75
2022/07/05 08:22:07;;;;;;;;;;;;;;;45.60;14.32;99384.59;5096972;27;20447;-77
2022/07/05 08:24:32;;;;;;;17.08;15.57;;;;;;;45.60;14.83;99373.31;5078659;27;19919;-76
2022/07/05 08:26:56;;;;;;;15.55;14.23;;;;;;;45.92;15.01;99376.09;5078547;27;20088;-78
2022/07/05 08:29:21;;;;;;;16.35;15.05;;;;;;;46.17;14.09;99379.72;5077764;27;20055;-76
2022/07/05 08:31:49;;;;;;;17.27;15.90;;;;;;;46.92;13.24;99388.63;5060786;27;20043;-77
2022/07/05 08:34:14;;;;;;;18.15;16.48;;;;;;;48.02;13.18;99373.97;5077998;27;20405;-77
2022/07/05 08:36:41;;;;;;;18.23;16.63;;;;;;;49.19;12.23;99375.94;5077972;27;20047;-77
2022/07/05 08:39:06;;;;;;;18.40;17.10;;;;;;;49.59;11.20;99390.53;5078196;27;20047;-78
2022/07/05 08:41:35;;;;;;;18.42;17.08;;;;;;;49.33;11.42;99387.56;5060368;27;20038;-77
2022/07/05 08:44:02;;;;;;;19.50;18.10;;;;;;;48.83;11.68;99382.84;5078147;27;20046;-77
2022/07/05 08:46:30;;;;;;;19.83;18.17;;;;;;;49.33;11.33;99377.03;5095562;27;20042;-75
2022/07/05 08:48:55;;;;;;;20.75;19.38;;;;;;;49.59;11.14;99373.53;5095551;27;20035;-76
2022/07/05 08:51:22;;;;;;;19.55;18.25;;;;;;;48.68;11.84;99359.03;5095971;27;20039;-76
2022/07/05 08:53:47;;;;;;;19.08;17.63;;;;;;;48.08;11.57;99366.06;5077829;28;20042;-77
2022/07/05 08:56:14;;;;;;;29.88;20.13;;;;;;;48.45;11.51;99361.75;5077751;27;20119;-76
2022/07/05 08:58:39;;;;;;;20.52;19.02;;;;;;;48.72;11.84;99357.09;5095944;27;20506;-76
2022/07/05 09:01:05;;;;;;;20.02;18.63;;;;;;;48.74;11.56;99366.06;5077496;28;20046;-77
2022/07/05 09:03:33;;;;;;;20.15;18.70;;;;;;;48.34;11.42;99355.81;5077466;27;20039;-78
2022/07/05 09:06:02;;;;;;;18.20;16.48;;;;;;;46.71;13.01;99353.31;5060782;27;20042;-77
2022/07/05 09:08:32;;;;;;;17.45;16.15;;;;;;;44.79;13.94;99344.59;5064790;27;20066;-78
2022/07/05 09:10:57;;;;;;;16.00;14.55;;;;;;;43.76;14.87;99342.31;5100174;27;20047;-74
2022/07/05 09:13:22;;;;;;;16.95;15.55;;;;;;;43.67;15.11;99338.72;5064378;27;20075;-74
2022/07/05 09:15:47;;;;;;;15.95;14.38;;;;;;;43.28;15.86;99339.78;5063972;27;20073;-75
2022/07/05 09:18:12;;;;;;;18.77;14.40;;;;;;;42.48;16.54;99330.84;5099446;27;20039;-75
2022/07/05 09:20:36;;;;;;;15.55;14.18;;;;;;;41.44;16.79;99323.97;5081584;27;20099;-75
2022/07/05 09:23:01;;;;;;;14.68;13.38;;;;;;;40.45;17.68;99332.53;5081354;27;20702;-74
2022/07/05 09:25:30;;;;;;;14.55;13.23;;;;;;;40.14;18.12;99322.00;5047244;27;20101;-74
2022/07/05 09:28:03;;;;;;;16.15;14.13;;;;;;;40.20;18.47;99322.69;5064275;27;20043;-75
2022/07/05 09:30:39;;;;;;;13.98;12.77;;;;;;;39.48;19.76;99319.69;5081111;27;20043;-73
2022/07/05 09:33:14;;;;;;;13.90;12.70;;;;;;;38.10;21.00;99320.91;5091235;27;20047;-75
2022/07/05 09:35:50;;;;;;;13.35;11.98;;;;;;;37.36;22.18;99321.44;5067590;27;20039;-75
2022/07/05 09:38:18;;;;;;;17.00;13.15;;;;;;;37.82;21.57;99321.78;5063936;27;20046;-76
2022/07/05 09:40:50;;;;;;;14.57;13.25;;;;;;;39.30;19.65;99321.34;5099072;27;20047;-77
2022/07/05 09:43:17;;;;;;;15.05;13.32;;;;;;;40.85;18.49;99322.41;5099539;27;20047;-78
2022/07/05 09:45:56;;;;;;;14.73;13.30;;;;;;;42.63;16.72;99327.56;5064714;27;20099;-76
2022/07/05 09:48:21;;;;;;;14.73;13.50;;;;;;;43.34;16.05;99308.41;5080977;27;20573;-75
2022/07/05 09:50:48;;;;;;;20.08;18.17;;;;;;;44.55;15.58;99316.28;5063666;27;20043;-75
2022/07/05 09:53:12;;;;;;;18.63;17.00;;;;;;;46.00;14.95;99317.16;5063423;27;20039;-74
2022/07/05 09:55:38;;;;;;;24.52;22.02;;;;;;;47.25;14.04;99328.28;5080377;27;20039;-76
2022/07/05 09:58:03;;;;;;;17.23;15.93;;;;;;;47.41;13.68;99323.50;5080874;27;20054;-77
2022/07/05 10:00:27;;;;;;;20.27;18.73;;;;;;;47.36;13.20;99323.75;5099343;27;20047;-74
2022/07/05 10:03:00;;;;;;;20.23;18.40;;;;;;;47.16;14.11;99331.28;5098868;27;20038;-75
2022/07/05 10:05:28;;;;;;;19.70;17.95;;;;;;;45.64;14.94;99315.94;5098488;27;20145;-76
2022/07/05 10:07:55;;;;;;;16.95;15.55;;;;;;;44.03;17.03;99312.94;5102711;27;20051;-77
2022/07/05 10:10:25;;;;;;;16.45;14.88;;;;;;;42.52;17.20;99311.41;5084562;27;20096;-77
2022/07/05 10:12:55;;;;;;;16.48;15.07;;;;;;;41.27;18.63;99304.28;5102011;27;20039;-78
2022/07/05 10:15:25;;;;;;;15.48;14.00;;;;;;;40.32;19.96;99302.66;5081682;27;20037;-80
2022/07/05 10:17:59;;;;;;;16.67;15.05;;;;;;;39.90;20.51;99297.09;5081305;27;20081;-78
2022/07/05 10:20:43;;;;;;;15.32;13.90;;;;;;;39.05;20.33;99294.75;5100280;27;20416;-76
2022/07/05 10:23:10;;;;;;;16.15;14.75;;;;;;;37.99;21.83;99280.41;5100176;27;20409;-78
2022/07/05 10:25:37;;;;;;;15.50;14.07;;;;;;;37.03;22.20;99281.38;5100026;27;20049;-78
2022/07/05 10:28:05;;;;;;;15.38;13.98;;;;;;;35.87;24.45;99282.94;5064623;27;20050;-77
2022/07/05 10:30:31;;;;;;;18.58;13.88;;;;;;;35.00;25.28;99278.63;5099852;27;20105;-76
2022/07/05 10:32:56;;;;;;;16.38;14.88;;;;;;;34.77;26.16;99271.69;5082286;27;20035;-77
2022/07/05 10:35:21;;;;;;;21.13;13.70;;;;;;;34.67;26.07;99275.25;5082160;27;20039;-79
2022/07/05 10:37:46;;;;;;;14.77;13.43;;;;;;;34.66;25.92;99264.44;5100908;27;20138;-77
2022/07/05 10:40:11;;;;;;;13.95;12.55;;;;;;;34.80;26.59;99268.38;5103261;27;20050;-78
2022/07/05 10:42:42;;;;;;;16.50;14.18;;;;;;;35.05;25.49;99264.78;5081120;27;20504;-74
2022/07/05 10:45:30;;;;;;;13.02;11.73;;;;;;;35.22;25.25;99265.28;5062511;27;20038;-75
2022/07/05 10:48:15;;;;;;;14.18;12.88;;;;;;;34.91;25.77;99259.78;5079749;27;20050;-74
2022/07/05 10:50:56;;;;;;;14.73;13.32;;;;;;;34.60;27.59;99264.47;5079888;27;20501;-73
2022/07/05 10:53:22;;;;;;;16.33;12.50;;;;;;;34.39;26.46;99260.00;5079885;27;20050;-75
2022/07/05 10:55:59;;;;;;;15.68;12.88;;;;;;;34.39;26.83;99257.25;5098370;27;20481;-74
2022/07/05 10:58:28;;;;;;;13.30;12.00;;;;;;;34.47;26.93;99256.69;5098069;27;20043;-76
2022/07/05 11:01:11;;;;;;;16.50;12.18;;;;;;;34.62;26.38;99255.06;5098497;27;20501;-76
2022/07/05 11:03:37;;;;;;;14.15;12.70;;;;;;;34.40;25.58;99250.59;5079854;27;20516;-77
2022/07/05 11:06:04;;;;;;;14.00;12.60;;;;;;;34.15;26.66;99245.81;5098134;27;20050;-75
2022/07/05 11:08:32;;;;;;;14.93;13.38;;;;;;;33.90;26.90;99259.56;5079533;27;20118;-77
2022/07/05 11:11:11;;;;;;;13.70;12.35;;;;;;;33.64;27.35;99260.50;5062163;27;20050;-74
2022/07/05 11:13:37;;;;;;;14.15;12.75;;;;;;;32.80;27.38;99250.28;5079426;27;20070;-71
2022/07/05 11:16:31;;;;;;;16.25;14.65;;;;;;;32.55;27.49;99250.88;5062649;27;20075;-72
2022/07/05 11:19:10;;;;;;;14.40;12.60;;;;;;;32.36;28.02;99242.13;5079275;27;20043;-74
2022/07/05 11:21:36;;;;;;;12.73;10.77;;;;;;;32.24;26.44;99246.97;5082499;27;20035;-76